sensor_id;sensor_type;location;lat;lon;timestamp;P1;durP1;ratioP1;P2;durP2;ratioP2
75362;SDS011;64122;51.988;5.892;2023-05-23T00:00:11;11.02;;;6.93;;
75362;SDS011;64122;51.988;5.892;2023-05-23T00:02:42;15.50;;;7.35;;
75362;SDS011;64122;51.988;5.892;2023-05-23T00:05:14;15.07;;;6.60;;
75362;SDS011;64122;51.988;5.892;2023-05-23T00:10:13;11.27;;;6.63;;
75362;SDS011;64122;51.988;5.892;2023-05-23T00:12:42;12.02;;;6.55;;
75362;SDS011;64122;51.988;5.892;2023-05-23T00:15:12;11.45;;;6.43;;
75362;SDS011;64122;51.988;5.892;2023-05-23T00:17:42;12.65;;;6.80;;
75362;SDS011;64122;51.988;5.892;2023-05-23T00:20:14;10.93;;;6.72;;
75362;SDS011;64122;51.988;5.892;2023-05-23T00:22:43;15.43;;;7.32;;
75362;SDS011;64122;51.988;5.892;2023-05-23T00:25:13;13.02;;;5.95;;
75362;SDS011;64122;51.988;5.892;2023-05-23T00:27:42;11.32;;;6.05;;
75362;SDS011;64122;51.988;5.892;2023-05-23T00:30:13;15.88;;;6.72;;
75362;SDS011;64122;51.988;5.892;2023-05-23T00:32:44;17.70;;;7.15;;
75362;SDS011;64122;51.988;5.892;2023-05-23T00:35:15;13.77;;;6.30;;
75362;SDS011;64122;51.988;5.892;2023-05-23T00:37:45;16.63;;;6.75;;
75362;SDS011;64122;51.988;5.892;2023-05-23T00:40:16;14.00;;;6.72;;
75362;SDS011;64122;51.988;5.892;2023-05-23T00:42:45;12.18;;;6.75;;
75362;SDS011;64122;51.988;5.892;2023-05-23T00:45:15;13.90;;;7.50;;
75362;SDS011;64122;51.988;5.892;2023-05-23T00:47:45;14.82;;;7.55;;
75362;SDS011;64122;51.988;5.892;2023-05-23T00:50:18;17.73;;;7.10;;
75362;SDS011;64122;51.988;5.892;2023-05-23T00:52:48;15.60;;;7.65;;
75362;SDS011;64122;51.988;5.892;2023-05-23T00:55:18;15.57;;;7.45;;
75362;SDS011;64122;51.988;5.892;2023-05-23T00:57:47;16.83;;;7.60;;
75362;SDS011;64122;51.988;5.892;2023-05-23T01:00:16;17.95;;;8.10;;
75362;SDS011;64122;51.988;5.892;2023-05-23T01:02:46;14.90;;;7.68;;
75362;SDS011;64122;51.988;5.892;2023-05-23T01:05:19;14.45;;;6.63;;
75362;SDS011;64122;51.988;5.892;2023-05-23T01:07:50;17.52;;;8.48;;
75362;SDS011;64122;51.988;5.892;2023-05-23T01:10:20;19.85;;;7.65;;
75362;SDS011;64122;51.988;5.892;2023-05-23T01:12:57;13.75;;;7.45;;
75362;SDS011;64122;51.988;5.892;2023-05-23T01:15:36;13.57;;;6.68;;
75362;SDS011;64122;51.988;5.892;2023-05-23T01:18:13;13.23;;;6.32;;
75362;SDS011;64122;51.988;5.892;2023-05-23T01:20:49;13.85;;;5.93;;
75362;SDS011;64122;51.988;5.892;2023-05-23T01:23:35;15.68;;;6.03;;
75362;SDS011;64122;51.988;5.892;2023-05-23T01:26:31;14.60;;;6.70;;
75362;SDS011;64122;51.988;5.892;2023-05-23T01:29:11;13.98;;;7.28;;
75362;SDS011;64122;51.988;5.892;2023-05-23T01:31:47;12.05;;;5.97;;
75362;SDS011;64122;51.988;5.892;2023-05-23T01:36:49;14.40;;;6.15;;
75362;SDS011;64122;51.988;5.892;2023-05-23T01:39:22;12.82;;;5.88;;
75362;SDS011;64122;51.988;5.892;2023-05-23T01:41:51;12.63;;;6.35;;
75362;SDS011;64122;51.988;5.892;2023-05-23T01:44:24;14.57;;;6.05;;
75362;SDS011;64122;51.988;5.892;2023-05-23T01:46:54;10.20;;;4.80;;
75362;SDS011;64122;51.988;5.892;2023-05-23T01:49:24;16.17;;;6.00;;
75362;SDS011;64122;51.988;5.892;2023-05-23T01:51:56;13.20;;;5.50;;
75362;SDS011;64122;51.988;5.892;2023-05-23T01:54:27;14.63;;;5.90;;
75362;SDS011;64122;51.988;5.892;2023-05-23T01:56:57;12.38;;;6.28;;
75362;SDS011;64122;51.988;5.892;2023-05-23T01:59:30;13.32;;;5.80;;
75362;SDS011;64122;51.988;5.892;2023-05-23T02:01:59;14.45;;;6.43;;
75362;SDS011;64122;51.988;5.892;2023-05-23T02:04:29;12.32;;;5.85;;
75362;SDS011;64122;51.988;5.892;2023-05-23T02:06:58;11.27;;;5.93;;
75362;SDS011;64122;51.988;5.892;2023-05-23T02:09:27;12.23;;;6.43;;
75362;SDS011;64122;51.988;5.892;2023-05-23T02:11:56;12.40;;;6.20;;
75362;SDS011;64122;51.988;5.892;2023-05-23T02:14:26;11.88;;;5.63;;
75362;SDS011;64122;51.988;5.892;2023-05-23T02:16:58;13.32;;;6.63;;
75362;SDS011;64122;51.988;5.892;2023-05-23T02:19:29;12.85;;;6.60;;
75362;SDS011;64122;51.988;5.892;2023-05-23T02:21:58;9.98;;;5.03;;
75362;SDS011;64122;51.988;5.892;2023-05-23T02:24:27;10.70;;;5.95;;
75362;SDS011;64122;51.988;5.892;2023-05-23T02:26:57;12.15;;;5.93;;
75362;SDS011;64122;51.988;5.892;2023-05-23T02:29:26;13.20;;;5.57;;
75362;SDS011;64122;51.988;5.892;2023-05-23T02:31:58;13.50;;;5.63;;
75362;SDS011;64122;51.988;5.892;2023-05-23T02:34:27;13.73;;;6.22;;
75362;SDS011;64122;51.988;5.892;2023-05-23T02:36:57;11.57;;;6.55;;
75362;SDS011;64122;51.988;5.892;2023-05-23T02:39:26;12.57;;;6.07;;
75362;SDS011;64122;51.988;5.892;2023-05-23T02:41:55;13.75;;;6.55;;
75362;SDS011;64122;51.988;5.892;2023-05-23T02:44:26;15.80;;;6.50;;
75362;SDS011;64122;51.988;5.892;2023-05-23T02:46:58;13.13;;;6.47;;
75362;SDS011;64122;51.988;5.892;2023-05-23T02:49:28;15.20;;;6.65;;
75362;SDS011;64122;51.988;5.892;2023-05-23T02:51:57;14.27;;;5.80;;
75362;SDS011;64122;51.988;5.892;2023-05-23T02:54:26;12.77;;;5.53;;
75362;SDS011;64122;51.988;5.892;2023-05-23T02:56:55;15.45;;;6.47;;
75362;SDS011;64122;51.988;5.892;2023-05-23T02:59:26;14.15;;;6.22;;
75362;SDS011;64122;51.988;5.892;2023-05-23T03:01:55;17.10;;;5.65;;
75362;SDS011;64122;51.988;5.892;2023-05-23T03:04:27;13.07;;;5.68;;
75362;SDS011;64122;51.988;5.892;2023-05-23T03:06:56;15.32;;;6.47;;
75362;SDS011;64122;51.988;5.892;2023-05-23T03:09:25;14.20;;;5.95;;
75362;SDS011;64122;51.988;5.892;2023-05-23T03:11:54;12.65;;;5.75;;
75362;SDS011;64122;51.988;5.892;2023-05-23T03:14:24;9.80;;;4.55;;
75362;SDS011;64122;51.988;5.892;2023-05-23T03:16:53;11.35;;;5.13;;
75362;SDS011;64122;51.988;5.892;2023-05-23T03:19:22;12.55;;;5.40;;
75362;SDS011;64122;51.988;5.892;2023-05-23T03:21:54;14.38;;;4.53;;
75362;SDS011;64122;51.988;5.892;2023-05-23T03:24:24;11.00;;;5.30;;
75362;SDS011;64122;51.988;5.892;2023-05-23T03:26:53;9.35;;;4.80;;
75362;SDS011;64122;51.988;5.892;2023-05-23T03:29:23;11.13;;;4.72;;
75362;SDS011;64122;51.988;5.892;2023-05-23T03:31:52;9.45;;;4.03;;
75362;SDS011;64122;51.988;5.892;2023-05-23T03:34:21;10.35;;;4.53;;
75362;SDS011;64122;51.988;5.892;2023-05-23T03:36:53;10.00;;;3.88;;
75362;SDS011;64122;51.988;5.892;2023-05-23T03:39:23;10.50;;;4.10;;
75362;SDS011;64122;51.988;5.892;2023-05-23T03:41:52;9.20;;;4.13;;
75362;SDS011;64122;51.988;5.892;2023-05-23T03:44:21;11.18;;;4.10;;
75362;SDS011;64122;51.988;5.892;2023-05-23T03:46:51;10.98;;;4.60;;
75362;SDS011;64122;51.988;5.892;2023-05-23T03:49:20;10.82;;;4.18;;
75362;SDS011;64122;51.988;5.892;2023-05-23T03:51:49;9.07;;;4.22;;
75362;SDS011;64122;51.988;5.892;2023-05-23T03:54:22;10.50;;;5.10;;
75362;SDS011;64122;51.988;5.892;2023-05-23T03:56:51;14.02;;;4.55;;
75362;SDS011;64122;51.988;5.892;2023-05-23T03:59:21;10.40;;;4.35;;
75362;SDS011;64122;51.988;5.892;2023-05-23T04:01:51;10.60;;;4.45;;
75362;SDS011;64122;51.988;5.892;2023-05-23T04:04:24;11.63;;;5.15;;
75362;SDS011;64122;51.988;5.892;2023-05-23T04:06:53;12.90;;;5.60;;
75362;SDS011;64122;51.988;5.892;2023-05-23T04:09:25;11.07;;;4.65;;
75362;SDS011;64122;51.988;5.892;2023-05-23T04:11:54;10.90;;;4.90;;
75362;SDS011;64122;51.988;5.892;2023-05-23T04:14:23;8.73;;;5.28;;
75362;SDS011;64122;51.988;5.892;2023-05-23T04:16:53;12.73;;;5.43;;
75362;SDS011;64122;51.988;5.892;2023-05-23T04:19:23;13.20;;;4.82;;
75362;SDS011;64122;51.988;5.892;2023-05-23T04:21:52;12.00;;;5.07;;
75362;SDS011;64122;51.988;5.892;2023-05-23T04:24:24;12.57;;;4.90;;
75362;SDS011;64122;51.988;5.892;2023-05-23T04:26:53;12.93;;;5.13;;
75362;SDS011;64122;51.988;5.892;2023-05-23T04:29:24;15.30;;;6.88;;
75362;SDS011;64122;51.988;5.892;2023-05-23T04:31:56;13.48;;;4.97;;
75362;SDS011;64122;51.988;5.892;2023-05-23T04:34:25;19.85;;;8.18;;
75362;SDS011;64122;51.988;5.892;2023-05-23T04:36:56;13.52;;;4.53;;
75362;SDS011;64122;51.988;5.892;2023-05-23T04:39:29;15.20;;;5.28;;
75362;SDS011;64122;51.988;5.892;2023-05-23T04:42:21;15.82;;;5.60;;
75362;SDS011;64122;51.988;5.892;2023-05-23T04:45:10;11.68;;;4.68;;
75362;SDS011;64122;51.988;5.892;2023-05-23T04:47:59;10.73;;;4.57;;
75362;SDS011;64122;51.988;5.892;2023-05-23T04:50:38;28.50;;;15.30;;
75362;SDS011;64122;51.988;5.892;2023-05-23T04:53:08;20.00;;;6.55;;
75362;SDS011;64122;51.988;5.892;2023-05-23T04:55:40;14.98;;;5.57;;
75362;SDS011;64122;51.988;5.892;2023-05-23T04:58:14;13.48;;;5.22;;
75362;SDS011;64122;51.988;5.892;2023-05-23T05:00:43;13.05;;;5.28;;
75362;SDS011;64122;51.988;5.892;2023-05-23T05:03:14;12.82;;;5.47;;
75362;SDS011;64122;51.988;5.892;2023-05-23T05:05:45;13.70;;;5.88;;
75362;SDS011;64122;51.988;5.892;2023-05-23T05:08:14;18.55;;;5.95;;
75362;SDS011;64122;51.988;5.892;2023-05-23T05:10:47;18.90;;;5.03;;
75362;SDS011;64122;51.988;5.892;2023-05-23T05:13:18;18.45;;;6.78;;
75362;SDS011;64122;51.988;5.892;2023-05-23T05:15:49;17.75;;;7.18;;
75362;SDS011;64122;51.988;5.892;2023-05-23T05:18:19;14.77;;;5.85;;
75362;SDS011;64122;51.988;5.892;2023-05-23T05:20:49;22.77;;;10.98;;
75362;SDS011;64122;51.988;5.892;2023-05-23T05:23:18;16.30;;;6.18;;
75362;SDS011;64122;51.988;5.892;2023-05-23T05:25:51;17.50;;;5.97;;
75362;SDS011;64122;51.988;5.892;2023-05-23T05:28:21;13.63;;;4.72;;
75362;SDS011;64122;51.988;5.892;2023-05-23T05:30:51;16.27;;;5.28;;
75362;SDS011;64122;51.988;5.892;2023-05-23T05:33:22;17.05;;;5.43;;
75362;SDS011;64122;51.988;5.892;2023-05-23T05:36:04;13.82;;;5.20;;
75362;SDS011;64122;51.988;5.892;2023-05-23T05:38:35;15.52;;;4.63;;
75362;SDS011;64122;51.988;5.892;2023-05-23T05:41:06;27.35;;;11.00;;
75362;SDS011;64122;51.988;5.892;2023-05-23T05:43:40;12.60;;;4.40;;
75362;SDS011;64122;51.988;5.892;2023-05-23T05:46:09;28.58;;;12.98;;
75362;SDS011;64122;51.988;5.892;2023-05-23T05:48:39;14.57;;;4.32;;
75362;SDS011;64122;51.988;5.892;2023-05-23T05:51:11;12.25;;;4.10;;
75362;SDS011;64122;51.988;5.892;2023-05-23T05:53:41;11.95;;;4.30;;
75362;SDS011;64122;51.988;5.892;2023-05-23T05:56:13;12.63;;;4.82;;
75362;SDS011;64122;51.988;5.892;2023-05-23T05:58:43;10.35;;;3.50;;
75362;SDS011;64122;51.988;5.892;2023-05-23T06:01:15;18.55;;;4.50;;
75362;SDS011;64122;51.988;5.892;2023-05-23T06:03:44;14.27;;;5.35;;
75362;SDS011;64122;51.988;5.892;2023-05-23T06:06:13;12.32;;;3.83;;
75362;SDS011;64122;51.988;5.892;2023-05-23T06:08:42;13.35;;;4.72;;
75362;SDS011;64122;51.988;5.892;2023-05-23T06:11:17;17.35;;;4.20;;
75362;SDS011;64122;51.988;5.892;2023-05-23T06:13:47;14.23;;;4.00;;
75362;SDS011;64122;51.988;5.892;2023-05-23T06:16:16;16.83;;;6.72;;
75362;SDS011;64122;51.988;5.892;2023-05-23T06:18:45;13.73;;;4.03;;
75362;SDS011;64122;51.988;5.892;2023-05-23T06:21:14;17.90;;;6.78;;
75362;SDS011;64122;51.988;5.892;2023-05-23T06:23:48;11.65;;;3.60;;
75362;SDS011;64122;51.988;5.892;2023-05-23T06:26:19;14.63;;;4.05;;
75362;SDS011;64122;51.988;5.892;2023-05-23T06:28:51;14.45;;;4.10;;
75362;SDS011;64122;51.988;5.892;2023-05-23T06:31:21;12.55;;;4.05;;
75362;SDS011;64122;51.988;5.892;2023-05-23T06:33:50;11.63;;;3.22;;
75362;SDS011;64122;51.988;5.892;2023-05-23T06:36:19;14.32;;;4.00;;
75362;SDS011;64122;51.988;5.892;2023-05-23T06:38:48;11.65;;;4.22;;
75362;SDS011;64122;51.988;5.892;2023-05-23T06:41:20;16.13;;;5.05;;
75362;SDS011;64122;51.988;5.892;2023-05-23T06:43:51;11.70;;;4.13;;
75362;SDS011;64122;51.988;5.892;2023-05-23T06:46:24;12.77;;;3.72;;
75362;SDS011;64122;51.988;5.892;2023-05-23T06:48:54;14.48;;;3.92;;
75362;SDS011;64122;51.988;5.892;2023-05-23T06:51:23;9.32;;;3.17;;
75362;SDS011;64122;51.988;5.892;2023-05-23T06:53:53;9.50;;;3.72;;
75362;SDS011;64122;51.988;5.892;2023-05-23T06:56:26;9.32;;;3.70;;
75362;SDS011;64122;51.988;5.892;2023-05-23T06:58:57;13.60;;;3.55;;
75362;SDS011;64122;51.988;5.892;2023-05-23T07:01:26;10.57;;;3.67;;
75362;SDS011;64122;51.988;5.892;2023-05-23T07:03:56;10.85;;;3.50;;
75362;SDS011;64122;51.988;5.892;2023-05-23T07:06:25;11.80;;;3.35;;
75362;SDS011;64122;51.988;5.892;2023-05-23T07:08:56;11.73;;;4.82;;
75362;SDS011;64122;51.988;5.892;2023-05-23T07:11:28;10.02;;;3.40;;
75362;SDS011;64122;51.988;5.892;2023-05-23T07:13:59;7.85;;;2.97;;
75362;SDS011;64122;51.988;5.892;2023-05-23T07:16:36;14.07;;;4.13;;
75362;SDS011;64122;51.988;5.892;2023-05-23T07:19:07;11.10;;;3.78;;
75362;SDS011;64122;51.988;5.892;2023-05-23T07:21:44;10.13;;;3.55;;
75362;SDS011;64122;51.988;5.892;2023-05-23T07:24:16;8.55;;;3.33;;
75362;SDS011;64122;51.988;5.892;2023-05-23T07:26:47;13.40;;;3.65;;
75362;SDS011;64122;51.988;5.892;2023-05-23T07:29:17;6.88;;;2.97;;
75362;SDS011;64122;51.988;5.892;2023-05-23T07:31:48;7.55;;;3.00;;
75362;SDS011;64122;51.988;5.892;2023-05-23T07:34:19;9.70;;;2.95;;
75362;SDS011;64122;51.988;5.892;2023-05-23T07:36:57;13.48;;;4.28;;
75362;SDS011;64122;51.988;5.892;2023-05-23T07:39:32;11.88;;;3.45;;
75362;SDS011;64122;51.988;5.892;2023-05-23T07:42:04;9.93;;;3.40;;
75362;SDS011;64122;51.988;5.892;2023-05-23T07:44:34;12.45;;;4.03;;
75362;SDS011;64122;51.988;5.892;2023-05-23T07:47:03;10.13;;;3.15;;
75362;SDS011;64122;51.988;5.892;2023-05-23T07:49:33;13.35;;;4.03;;
75362;SDS011;64122;51.988;5.892;2023-05-23T07:52:03;8.63;;;3.50;;
75362;SDS011;64122;51.988;5.892;2023-05-23T07:54:33;13.23;;;3.30;;
75362;SDS011;64122;51.988;5.892;2023-05-23T07:57:07;13.00;;;4.88;;
75362;SDS011;64122;51.988;5.892;2023-05-23T07:59:36;10.80;;;3.97;;
75362;SDS011;64122;51.988;5.892;2023-05-23T08:02:06;8.30;;;3.75;;
75362;SDS011;64122;51.988;5.892;2023-05-23T08:04:35;13.68;;;3.60;;
75362;SDS011;64122;51.988;5.892;2023-05-23T08:07:04;12.60;;;3.50;;
75362;SDS011;64122;51.988;5.892;2023-05-23T08:09:44;10.30;;;2.80;;
75362;SDS011;64122;51.988;5.892;2023-05-23T08:12:19;8.10;;;2.60;;
75362;SDS011;64122;51.988;5.892;2023-05-23T08:14:57;10.60;;;2.72;;
75362;SDS011;64122;51.988;5.892;2023-05-23T08:17:30;7.72;;;1.92;;
75362;SDS011;64122;51.988;5.892;2023-05-23T08:19:59;12.50;;;2.58;;
75362;SDS011;64122;51.988;5.892;2023-05-23T08:22:30;10.82;;;2.88;;
75362;SDS011;64122;51.988;5.892;2023-05-23T08:24:59;11.70;;;2.70;;
75362;SDS011;64122;51.988;5.892;2023-05-23T08:27:32;8.40;;;2.10;;
75362;SDS011;64122;51.988;5.892;2023-05-23T08:30:07;8.38;;;2.20;;
75362;SDS011;64122;51.988;5.892;2023-05-23T08:32:38;7.03;;;2.17;;
75362;SDS011;64122;51.988;5.892;2023-05-23T08:35:07;7.18;;;2.20;;
75362;SDS011;64122;51.988;5.892;2023-05-23T08:37:37;8.68;;;2.38;;
75362;SDS011;64122;51.988;5.892;2023-05-23T08:40:12;8.27;;;2.38;;
75362;SDS011;64122;51.988;5.892;2023-05-23T08:42:48;12.32;;;2.90;;
75362;SDS011;64122;51.988;5.892;2023-05-23T08:45:19;10.73;;;2.63;;
75362;SDS011;64122;51.988;5.892;2023-05-23T08:47:50;12.63;;;2.83;;
75362;SDS011;64122;51.988;5.892;2023-05-23T08:50:21;16.83;;;2.70;;
75362;SDS011;64122;51.988;5.892;2023-05-23T08:52:54;13.15;;;3.17;;
75362;SDS011;64122;51.988;5.892;2023-05-23T08:55:25;11.98;;;2.95;;
75362;SDS011;64122;51.988;5.892;2023-05-23T08:57:59;11.50;;;2.92;;
75362;SDS011;64122;51.988;5.892;2023-05-23T09:00:38;13.27;;;2.70;;
75362;SDS011;64122;51.988;5.892;2023-05-23T09:03:08;9.43;;;2.00;;
75362;SDS011;64122;51.988;5.892;2023-05-23T09:05:58;9.27;;;2.22;;
75362;SDS011;64122;51.988;5.892;2023-05-23T09:08:28;10.25;;;2.38;;
75362;SDS011;64122;51.988;5.892;2023-05-23T09:10:58;13.93;;;2.38;;
75362;SDS011;64122;51.988;5.892;2023-05-23T09:13:32;10.40;;;2.50;;
75362;SDS011;64122;51.988;5.892;2023-05-23T09:16:05;10.20;;;2.08;;
75362;SDS011;64122;51.988;5.892;2023-05-23T09:18:43;15.18;;;2.20;;
75362;SDS011;64122;51.988;5.892;2023-05-23T09:21:15;12.98;;;1.92;;
75362;SDS011;64122;51.988;5.892;2023-05-23T09:23:57;9.45;;;2.08;;
75362;SDS011;64122;51.988;5.892;2023-05-23T09:26:27;9.13;;;1.92;;
75362;SDS011;64122;51.988;5.892;2023-05-23T09:28:59;10.02;;;2.55;;
75362;SDS011;64122;51.988;5.892;2023-05-23T09:31:29;9.40;;;2.45;;
75362;SDS011;64122;51.988;5.892;2023-05-23T09:34:02;10.55;;;2.33;;
75362;SDS011;64122;51.988;5.892;2023-05-23T09:36:32;9.25;;;2.70;;
75362;SDS011;64122;51.988;5.892;2023-05-23T09:39:02;13.93;;;2.25;;
75362;SDS011;64122;51.988;5.892;2023-05-23T09:41:34;12.15;;;2.42;;
75362;SDS011;64122;51.988;5.892;2023-05-23T09:44:07;10.60;;;2.25;;
75362;SDS011;64122;51.988;5.892;2023-05-23T09:46:37;17.85;;;2.65;;
75362;SDS011;64122;51.988;5.892;2023-05-23T09:49:16;11.00;;;2.80;;
75362;SDS011;64122;51.988;5.892;2023-05-23T09:51:57;13.15;;;3.03;;
75362;SDS011;64122;51.988;5.892;2023-05-23T09:54:27;12.25;;;2.38;;
75362;SDS011;64122;51.988;5.892;2023-05-23T09:56:56;10.25;;;2.55;;
75362;SDS011;64122;51.988;5.892;2023-05-23T09:59:30;10.75;;;2.03;;
75362;SDS011;64122;51.988;5.892;2023-05-23T10:02:02;9.18;;;2.28;;
75362;SDS011;64122;51.988;5.892;2023-05-23T10:04:35;12.32;;;2.60;;
75362;SDS011;64122;51.988;5.892;2023-05-23T10:07:09;14.45;;;2.33;;
75362;SDS011;64122;51.988;5.892;2023-05-23T10:09:47;12.18;;;2.55;;
75362;SDS011;64122;51.988;5.892;2023-05-23T10:15:16;12.40;;;3.15;;
75362;SDS011;64122;51.988;5.892;2023-05-23T10:17:54;12.25;;;2.55;;
75362;SDS011;64122;51.988;5.892;2023-05-23T10:20:29;10.85;;;3.75;;
75362;SDS011;64122;51.988;5.892;2023-05-23T10:23:00;12.23;;;2.28;;
75362;SDS011;64122;51.988;5.892;2023-05-23T10:25:33;10.30;;;2.80;;
75362;SDS011;64122;51.988;5.892;2023-05-23T10:28:03;10.27;;;2.40;;
75362;SDS011;64122;51.988;5.892;2023-05-23T10:30:35;9.65;;;2.78;;
75362;SDS011;64122;51.988;5.892;2023-05-23T10:33:05;10.57;;;2.88;;
75362;SDS011;64122;51.988;5.892;2023-05-23T10:35:38;8.07;;;2.20;;
75362;SDS011;64122;51.988;5.892;2023-05-23T10:38:17;10.90;;;2.25;;
75362;SDS011;64122;51.988;5.892;2023-05-23T10:40:56;14.57;;;3.65;;
75362;SDS011;64122;51.988;5.892;2023-05-23T10:43:31;12.88;;;2.50;;
75362;SDS011;64122;51.988;5.892;2023-05-23T10:46:11;13.95;;;2.67;;
75362;SDS011;64122;51.988;5.892;2023-05-23T10:48:41;12.07;;;2.60;;
75362;SDS011;64122;51.988;5.892;2023-05-23T10:51:12;14.00;;;2.85;;
75362;SDS011;64122;51.988;5.892;2023-05-23T10:53:42;15.23;;;3.13;;
75362;SDS011;64122;51.988;5.892;2023-05-23T10:56:18;13.35;;;2.88;;
75362;SDS011;64122;51.988;5.892;2023-05-23T10:58:51;15.93;;;2.95;;
75362;SDS011;64122;51.988;5.892;2023-05-23T11:01:24;14.23;;;3.70;;
75362;SDS011;64122;51.988;5.892;2023-05-23T11:03:55;8.68;;;2.40;;
75362;SDS011;64122;51.988;5.892;2023-05-23T11:06:28;10.27;;;2.40;;
75362;SDS011;64122;51.988;5.892;2023-05-23T11:09:01;10.63;;;2.70;;
75362;SDS011;64122;51.988;5.892;2023-05-23T11:14:20;11.02;;;2.38;;
75362;SDS011;64122;51.988;5.892;2023-05-23T11:17:14;13.02;;;2.55;;
75362;SDS011;64122;51.988;5.892;2023-05-23T11:22:33;10.98;;;2.50;;
75362;SDS011;64122;51.988;5.892;2023-05-23T11:25:08;10.63;;;2.47;;
75362;SDS011;64122;51.988;5.892;2023-05-23T11:27:38;12.80;;;2.80;;
75362;SDS011;64122;51.988;5.892;2023-05-23T11:30:13;11.88;;;2.90;;
75362;SDS011;64122;51.988;5.892;2023-05-23T11:32:51;15.07;;;3.15;;
75362;SDS011;64122;51.988;5.892;2023-05-23T11:35:21;7.05;;;2.47;;
75362;SDS011;64122;51.988;5.892;2023-05-23T11:37:51;8.15;;;1.83;;
75362;SDS011;64122;51.988;5.892;2023-05-23T11:40:24;11.95;;;2.50;;
75362;SDS011;64122;51.988;5.892;2023-05-23T11:42:55;12.00;;;2.78;;
75362;SDS011;64122;51.988;5.892;2023-05-23T11:45:25;6.47;;;2.20;;
75362;SDS011;64122;51.988;5.892;2023-05-23T11:47:57;12.95;;;2.60;;
75362;SDS011;64122;51.988;5.892;2023-05-23T11:50:27;11.85;;;2.75;;
75362;SDS011;64122;51.988;5.892;2023-05-23T11:52:56;10.68;;;2.70;;
75362;SDS011;64122;51.988;5.892;2023-05-23T11:55:25;11.15;;;2.50;;
75362;SDS011;64122;51.988;5.892;2023-05-23T11:57:55;9.93;;;2.65;;
75362;SDS011;64122;51.988;5.892;2023-05-23T12:00:25;12.13;;;2.55;;
75362;SDS011;64122;51.988;5.892;2023-05-23T12:02:57;12.30;;;2.90;;
75362;SDS011;64122;51.988;5.892;2023-05-23T12:05:26;10.20;;;2.20;;
75362;SDS011;64122;51.988;5.892;2023-05-23T12:07:58;11.68;;;3.45;;
75362;SDS011;64122;51.988;5.892;2023-05-23T12:10:27;10.00;;;2.50;;
75362;SDS011;64122;51.988;5.892;2023-05-23T12:12:57;9.65;;;1.90;;
75362;SDS011;64122;51.988;5.892;2023-05-23T12:15:26;8.25;;;2.10;;
75362;SDS011;64122;51.988;5.892;2023-05-23T12:18:00;8.93;;;2.30;;
75362;SDS011;64122;51.988;5.892;2023-05-23T12:20:30;11.60;;;2.05;;
75362;SDS011;64122;51.988;5.892;2023-05-23T12:23:02;8.05;;;2.00;;
75362;SDS011;64122;51.988;5.892;2023-05-23T12:25:36;9.68;;;2.10;;
75362;SDS011;64122;51.988;5.892;2023-05-23T12:28:08;8.50;;;1.60;;
75362;SDS011;64122;51.988;5.892;2023-05-23T12:30:42;10.82;;;2.88;;
75362;SDS011;64122;51.988;5.892;2023-05-23T12:33:14;7.97;;;2.15;;
75362;SDS011;64122;51.988;5.892;2023-05-23T12:35:45;9.40;;;1.55;;
75362;SDS011;64122;51.988;5.892;2023-05-23T12:38:15;13.45;;;2.40;;
75362;SDS011;64122;51.988;5.892;2023-05-23T12:41:00;8.10;;;1.70;;
75362;SDS011;64122;51.988;5.892;2023-05-23T12:43:36;6.75;;;2.05;;
75362;SDS011;64122;51.988;5.892;2023-05-23T12:46:06;8.68;;;2.25;;
75362;SDS011;64122;51.988;5.892;2023-05-23T12:48:38;10.35;;;2.25;;
75362;SDS011;64122;51.988;5.892;2023-05-23T12:51:07;13.15;;;2.50;;
75362;SDS011;64122;51.988;5.892;2023-05-23T12:53:37;11.60;;;2.00;;
75362;SDS011;64122;51.988;5.892;2023-05-23T12:56:06;10.80;;;2.08;;
75362;SDS011;64122;51.988;5.892;2023-05-23T12:58:35;9.63;;;2.53;;
75362;SDS011;64122;51.988;5.892;2023-05-23T13:01:05;7.50;;;2.17;;
75362;SDS011;64122;51.988;5.892;2023-05-23T13:03:34;7.88;;;2.40;;
75362;SDS011;64122;51.988;5.892;2023-05-23T13:06:06;9.63;;;2.10;;
75362;SDS011;64122;51.988;5.892;2023-05-23T13:11:07;8.30;;;2.10;;
75362;SDS011;64122;51.988;5.892;2023-05-23T13:13:37;9.23;;;2.25;;
75362;SDS011;64122;51.988;5.892;2023-05-23T13:16:06;8.98;;;1.83;;
75362;SDS011;64122;51.988;5.892;2023-05-23T13:18:35;9.35;;;2.08;;
75362;SDS011;64122;51.988;5.892;2023-05-23T13:21:07;4.95;;;1.73;;
75362;SDS011;64122;51.988;5.892;2023-05-23T13:23:37;10.07;;;1.85;;
75362;SDS011;64122;51.988;5.892;2023-05-23T13:26:06;9.35;;;2.63;;
75362;SDS011;64122;51.988;5.892;2023-05-23T13:28:35;10.50;;;2.30;;
75362;SDS011;64122;51.988;5.892;2023-05-23T13:31:05;8.45;;;1.80;;
75362;SDS011;64122;51.988;5.892;2023-05-23T13:33:34;9.60;;;2.03;;
75362;SDS011;64122;51.988;5.892;2023-05-23T13:36:03;9.43;;;2.10;;
75362;SDS011;64122;51.988;5.892;2023-05-23T13:38:36;9.15;;;2.40;;
75362;SDS011;64122;51.988;5.892;2023-05-23T13:41:05;9.45;;;2.50;;
75362;SDS011;64122;51.988;5.892;2023-05-23T13:43:36;7.03;;;1.70;;
75362;SDS011;64122;51.988;5.892;2023-05-23T13:46:05;13.25;;;2.83;;
75362;SDS011;64122;51.988;5.892;2023-05-23T13:48:34;10.50;;;2.42;;
75362;SDS011;64122;51.988;5.892;2023-05-23T13:51:03;8.85;;;2.30;;
75362;SDS011;64122;51.988;5.892;2023-05-23T13:53:33;10.65;;;2.90;;
75362;SDS011;64122;51.988;5.892;2023-05-23T13:56:04;10.93;;;2.30;;
75362;SDS011;64122;51.988;5.892;2023-05-23T13:58:34;7.07;;;2.05;;
75362;SDS011;64122;51.988;5.892;2023-05-23T14:01:04;7.55;;;1.98;;
75362;SDS011;64122;51.988;5.892;2023-05-23T14:03:33;10.73;;;2.25;;
75362;SDS011;64122;51.988;5.892;2023-05-23T14:06:03;11.35;;;2.25;;
75362;SDS011;64122;51.988;5.892;2023-05-23T14:08:32;11.07;;;2.35;;
75362;SDS011;64122;51.988;5.892;2023-05-23T14:11:04;9.70;;;2.28;;
75362;SDS011;64122;51.988;5.892;2023-05-23T14:13:33;9.13;;;2.58;;
75362;SDS011;64122;51.988;5.892;2023-05-23T14:16:02;9.65;;;2.40;;
75362;SDS011;64122;51.988;5.892;2023-05-23T14:18:32;11.02;;;2.05;;
75362;SDS011;64122;51.988;5.892;2023-05-23T14:21:01;9.27;;;2.45;;
75362;SDS011;64122;51.988;5.892;2023-05-23T14:23:31;9.35;;;2.33;;
75362;SDS011;64122;51.988;5.892;2023-05-23T14:26:00;11.25;;;2.60;;
75362;SDS011;64122;51.988;5.892;2023-05-23T14:28:32;11.82;;;2.40;;
75362;SDS011;64122;51.988;5.892;2023-05-23T14:31:01;13.85;;;2.53;;
75362;SDS011;64122;51.988;5.892;2023-05-23T14:33:30;14.98;;;2.50;;
75362;SDS011;64122;51.988;5.892;2023-05-23T14:36:01;12.15;;;2.95;;
75362;SDS011;64122;51.988;5.892;2023-05-23T14:38:31;10.93;;;2.85;;
75362;SDS011;64122;51.988;5.892;2023-05-23T14:41:00;11.02;;;2.92;;
75362;SDS011;64122;51.988;5.892;2023-05-23T14:43:32;10.77;;;2.75;;
75362;SDS011;64122;51.988;5.892;2023-05-23T14:46:01;12.20;;;3.03;;
75362;SDS011;64122;51.988;5.892;2023-05-23T14:48:31;9.90;;;1.92;;
75362;SDS011;64122;51.988;5.892;2023-05-23T14:51:00;10.23;;;2.50;;
75362;SDS011;64122;51.988;5.892;2023-05-23T14:53:31;8.50;;;2.25;;
75362;SDS011;64122;51.988;5.892;2023-05-23T14:56:00;10.30;;;2.47;;
75362;SDS011;64122;51.988;5.892;2023-05-23T14:58:32;10.90;;;2.88;;
75362;SDS011;64122;51.988;5.892;2023-05-23T15:01:01;12.00;;;2.28;;
75362;SDS011;64122;51.988;5.892;2023-05-23T15:03:31;7.13;;;1.85;;
75362;SDS011;64122;51.988;5.892;2023-05-23T15:06:00;9.38;;;1.90;;
75362;SDS011;64122;51.988;5.892;2023-05-23T15:08:31;12.52;;;2.60;;
75362;SDS011;64122;51.988;5.892;2023-05-23T15:11:00;11.88;;;1.75;;
75362;SDS011;64122;51.988;5.892;2023-05-23T15:13:32;12.18;;;2.50;;
75362;SDS011;64122;51.988;5.892;2023-05-23T15:16:02;12.07;;;2.50;;
75362;SDS011;64122;51.988;5.892;2023-05-23T15:18:34;8.77;;;2.83;;